createdAt,value
2023-05-08T00:01:58.860Z,10.90
2023-05-08T00:04:26.077Z,11.40
2023-05-08T00:06:53.276Z,54.60
2023-05-08T00:09:21.056Z,35.20
2023-05-08T00:11:48.175Z,20.10
2023-05-08T00:14:15.433Z,13.00
2023-05-08T00:16:42.578Z,18.10
2023-05-08T00:19:09.632Z,14.10
2023-05-08T00:21:36.992Z,13.70
2023-05-08T00:24:04.122Z,10.90
2023-05-08T00:26:31.424Z,17.40
2023-05-08T00:28:58.518Z,20.20
2023-05-08T00:31:25.691Z,31.50
2023-05-08T00:33:52.783Z,37.80
2023-05-08T00:36:19.957Z,33.30
2023-05-08T00:38:47.338Z,24.30
2023-05-08T00:41:14.805Z,16.80
2023-05-08T00:43:42.219Z,15.70
2023-05-08T00:46:10.018Z,14.20
2023-05-08T00:48:38.859Z,16.00
2023-05-08T00:51:08.366Z,22.20
2023-05-08T00:53:40.900Z,21.30
2023-05-08T00:56:11.384Z,15.70
2023-05-08T00:58:38.986Z,13.20
2023-05-08T01:01:06.133Z,10.30
2023-05-08T01:03:36.519Z,8.80
2023-05-08T01:06:04.940Z,9.60
2023-05-08T01:08:32.398Z,12.90
2023-05-08T01:11:14.498Z,26.30
2023-05-08T01:14:02.533Z,17.90
2023-05-08T01:16:49.620Z,16.40
2023-05-08T01:19:35.638Z,16.00
2023-05-08T01:24:51.869Z,14.50
2023-05-08T01:27:19.194Z,13.10
2023-05-08T01:30:12.569Z,12.40
2023-05-08T01:32:43.046Z,10.50
2023-05-08T01:35:29.264Z,9.60
2023-05-08T01:38:20.330Z,10.20
2023-05-08T01:41:08.265Z,14.00
2023-05-08T01:44:05.770Z,18.10
2023-05-08T01:46:34.346Z,19.80
2023-05-08T01:49:09.136Z,11.30
2023-05-08T01:51:46.059Z,10.40
2023-05-08T01:54:19.782Z,11.10
2023-05-08T01:56:49.097Z,21.90
2023-05-08T01:59:20.937Z,18.20
2023-05-08T02:01:51.537Z,9.70
2023-05-08T02:04:20.120Z,8.80
2023-05-08T02:06:47.404Z,9.10
2023-05-08T02:09:15.182Z,9.80
2023-05-08T02:11:44.301Z,9.80
2023-05-08T02:14:13.641Z,9.70
2023-05-08T02:16:43.560Z,11.90
2023-05-08T02:19:11.809Z,17.60
2023-05-08T02:21:40.999Z,16.30
2023-05-08T02:24:09.358Z,13.40
2023-05-08T02:26:38.420Z,16.50
2023-05-08T02:29:06.110Z,14.80
2023-05-08T02:31:34.128Z,12.50
2023-05-08T02:34:04.253Z,19.10
2023-05-08T02:36:32.642Z,16.10
2023-05-08T02:39:02.313Z,10.90
2023-05-08T02:41:32.570Z,10.40
2023-05-08T02:43:59.822Z,9.70
2023-05-08T02:47:12.800Z,10.10
2023-05-08T02:50:03.371Z,14.60
2023-05-08T02:52:43.119Z,12.30
2023-05-08T02:55:38.712Z,14.00
2023-05-08T02:58:31.313Z,16.20
2023-05-08T03:01:15.311Z,15.60
2023-05-08T03:03:47.445Z,13.90
2023-05-08T03:06:19.488Z,14.80
2023-05-08T03:08:48.686Z,14.00
2023-05-08T03:11:19.903Z,13.10
2023-05-08T03:13:49.017Z,15.00
2023-05-08T03:16:21.496Z,22.20
2023-05-08T03:18:55.102Z,21.20
2023-05-08T03:21:24.424Z,16.80
2023-05-08T03:23:53.242Z,15.00
2023-05-08T03:26:21.398Z,15.70
2023-05-08T03:28:50.006Z,17.30
2023-05-08T03:31:21.374Z,19.90
2023-05-08T03:33:52.518Z,25.70
2023-05-08T03:36:20.198Z,24.90
2023-05-08T03:38:47.552Z,24.60
2023-05-08T03:41:15.857Z,18.10
2023-05-08T03:43:44.123Z,12.80
2023-05-08T03:46:12.545Z,16.90
2023-05-08T03:48:41.365Z,24.70
2023-05-08T03:51:08.506Z,23.70
2023-05-08T03:53:38.141Z,20.10
2023-05-08T03:56:05.505Z,15.60
2023-05-08T03:58:49.223Z,11.90
2023-05-08T04:01:42.459Z,10.00
2023-05-08T04:04:39.962Z,9.90
2023-05-08T04:07:28.092Z,9.40
2023-05-08T04:10:09.647Z,10.30
2023-05-08T04:12:45.753Z,8.80
2023-05-08T04:15:19.120Z,8.30
2023-05-08T04:17:51.048Z,7.70
2023-05-08T04:20:21.100Z,8.00
2023-05-08T04:22:52.804Z,7.30
2023-05-08T04:25:21.490Z,8.10
2023-05-08T04:27:51.454Z,7.90
2023-05-08T04:30:19.687Z,6.80
2023-05-08T04:32:48.090Z,8.80
2023-05-08T04:35:15.784Z,9.50
2023-05-08T04:37:44.186Z,8.90
2023-05-08T04:40:11.891Z,14.30
2023-05-08T04:42:42.919Z,27.20
2023-05-08T04:45:10.830Z,36.90
2023-05-08T04:47:38.308Z,26.10
2023-05-08T04:50:06.449Z,19.10
2023-05-08T04:52:34.524Z,16.00
2023-05-08T04:55:02.034Z,15.80
2023-05-08T04:57:29.891Z,16.90
2023-05-08T04:59:57.169Z,16.10
2023-05-08T05:02:26.288Z,13.70
2023-05-08T05:04:53.691Z,17.20
2023-05-08T05:07:20.861Z,16.80
2023-05-08T05:09:47.991Z,17.70
2023-05-08T05:12:15.153Z,16.60
2023-05-08T05:14:42.290Z,17.40
2023-05-08T05:17:09.441Z,16.90
2023-05-08T05:19:36.688Z,15.40
2023-05-08T05:22:03.859Z,12.90
2023-05-08T05:24:31.436Z,9.50
2023-05-08T05:26:58.683Z,11.00
2023-05-08T05:29:25.761Z,12.50
2023-05-08T05:31:52.959Z,12.00
2023-05-08T05:34:20.522Z,10.20
2023-05-08T05:36:48.207Z,8.70
2023-05-08T05:39:15.610Z,11.70
2023-05-08T05:41:44.539Z,29.30
2023-05-08T05:44:12.058Z,16.10
2023-05-08T05:46:39.487Z,19.20
2023-05-08T05:49:07.260Z,31.40
2023-05-08T05:51:34.345Z,33.50
2023-05-08T05:54:01.561Z,16.10
2023-05-08T05:56:29.534Z,12.90
2023-05-08T05:58:56.950Z,11.40
2023-05-08T06:01:24.883Z,9.70
2023-05-08T06:03:52.262Z,10.10
2023-05-08T06:06:19.445Z,7.00
2023-05-08T06:08:48.582Z,6.70
2023-05-08T06:11:15.868Z,5.40
2023-05-08T06:13:44.085Z,6.00
2023-05-08T06:16:12.286Z,5.90
2023-05-08T06:18:39.571Z,6.20
2023-05-08T06:21:06.846Z,5.20
2023-05-08T06:23:33.906Z,5.50
2023-05-08T06:26:00.995Z,5.20
2023-05-08T06:28:28.254Z,5.20
2023-05-08T06:30:55.574Z,5.20
2023-05-08T06:33:24.150Z,7.90
2023-05-08T06:35:53.437Z,5.30
2023-05-08T06:38:20.617Z,7.00
2023-05-08T06:40:50.195Z,5.30
2023-05-08T06:43:17.403Z,5.30
2023-05-08T06:45:45.585Z,5.50
2023-05-08T06:48:12.735Z,5.90
2023-05-08T06:50:40.922Z,7.00
2023-05-08T06:53:08.665Z,5.20
2023-05-08T06:55:36.036Z,5.80
2023-05-08T06:58:03.202Z,6.00
2023-05-08T07:00:30.400Z,7.40
2023-05-08T07:02:57.571Z,12.40
2023-05-08T07:05:24.939Z,6.40
2023-05-08T07:07:54.208Z,4.90
2023-05-08T07:10:23.092Z,4.60
2023-05-08T07:12:50.316Z,4.70
2023-05-08T07:15:26.019Z,3.60
2023-05-08T07:17:54.027Z,4.70
2023-05-08T07:20:21.779Z,6.20
2023-05-08T07:22:49.178Z,4.20
2023-05-08T07:25:16.365Z,4.60
2023-05-08T07:27:43.724Z,5.00
2023-05-08T07:30:11.400Z,10.50
2023-05-08T07:32:41.266Z,4.70
2023-05-08T07:35:11.312Z,4.10
2023-05-08T07:37:39.846Z,3.90
2023-05-08T07:40:07.677Z,4.30
2023-05-08T07:42:45.091Z,4.10
2023-05-08T07:45:13.830Z,7.50
2023-05-08T07:47:55.405Z,4.50
2023-05-08T07:50:23.158Z,4.20
2023-05-08T07:52:50.628Z,3.40
2023-05-08T07:55:18.757Z,3.40
2023-05-08T07:57:46.304Z,3.00
2023-05-08T08:00:15.170Z,3.30
2023-05-08T08:02:43.786Z,2.40
2023-05-08T08:05:11.596Z,3.10
2023-05-08T08:07:38.939Z,2.80
2023-05-08T08:10:06.819Z,2.80
2023-05-08T08:12:34.266Z,3.40
2023-05-08T08:15:01.342Z,3.50
2023-05-08T08:17:29.068Z,2.70
2023-05-08T08:19:57.385Z,2.90
2023-05-08T08:22:25.579Z,5.10
2023-05-08T08:24:55.139Z,3.10
2023-05-08T08:27:23.230Z,2.80
2023-05-08T08:29:52.518Z,2.60
2023-05-08T08:34:53.054Z,2.20
2023-05-08T08:37:20.169Z,3.40
2023-05-08T08:39:48.578Z,2.70
2023-05-08T08:42:15.736Z,2.80
2023-05-08T08:44:43.096Z,4.20
2023-05-08T08:47:16.667Z,2.70
2023-05-08T08:49:48.962Z,3.40
2023-05-08T08:52:28.562Z,2.50
2023-05-08T08:54:57.488Z,2.50
2023-05-08T08:57:27.776Z,2.80
2023-05-08T08:59:56.130Z,2.70
2023-05-08T09:02:24.566Z,2.20
2023-05-08T09:04:51.922Z,3.30
2023-05-08T09:07:19.432Z,12.10
2023-05-08T09:09:47.120Z,5.00
2023-05-08T09:12:14.682Z,2.80
2023-05-08T09:14:41.937Z,2.20
2023-05-08T09:17:09.883Z,1.90
2023-05-08T09:19:37.120Z,1.80
2023-05-08T09:22:06.974Z,1.80
2023-05-08T09:24:57.060Z,1.90
2023-05-08T09:27:28.726Z,2.50
2023-05-08T09:30:16.074Z,2.70
2023-05-08T09:32:45.764Z,2.50
2023-05-08T09:35:13.582Z,2.20
2023-05-08T09:37:43.116Z,3.40
2023-05-08T09:40:17.723Z,1.80
2023-05-08T09:42:45.621Z,2.00
2023-05-08T09:45:27.084Z,1.80
2023-05-08T09:47:54.354Z,2.40
2023-05-08T09:50:21.800Z,3.40
2023-05-08T09:52:50.568Z,2.30
2023-05-08T09:55:18.480Z,4.50
2023-05-08T09:57:53.961Z,2.40
2023-05-08T10:02:59.034Z,2.20
2023-05-08T10:05:34.812Z,2.00
2023-05-08T10:08:21.556Z,1.50
2023-05-08T10:10:49.121Z,2.60
2023-05-08T10:13:16.360Z,2.00
2023-05-08T10:15:44.522Z,1.90
2023-05-08T10:18:12.359Z,4.80
2023-05-08T10:20:41.991Z,2.00
2023-05-08T10:23:14.775Z,1.70
2023-05-08T10:25:45.522Z,2.10
2023-05-08T10:28:29.429Z,1.70
2023-05-08T10:31:01.020Z,1.90
2023-05-08T10:33:32.097Z,2.10
2023-05-08T10:36:00.167Z,1.70
2023-05-08T10:38:27.682Z,1.60
2023-05-08T10:40:58.266Z,2.00
2023-05-08T10:43:26.024Z,3.50
2023-05-08T10:45:55.742Z,3.20
2023-05-08T10:48:48.540Z,2.40
2023-05-08T10:51:40.801Z,3.20
2023-05-08T10:54:27.935Z,1.80
2023-05-08T10:57:08.252Z,2.00
2023-05-08T10:59:37.355Z,2.20
2023-05-08T11:02:07.265Z,1.90
2023-05-08T11:04:35.136Z,1.80
2023-05-08T11:07:03.331Z,1.70
2023-05-08T11:09:45.602Z,2.40
2023-05-08T11:12:26.532Z,1.80
2023-05-08T11:14:55.433Z,1.80
2023-05-08T11:17:26.498Z,13.20
2023-05-08T11:19:56.876Z,4.30
2023-05-08T11:22:27.207Z,5.10
2023-05-08T11:25:09.268Z,5.60
2023-05-08T11:27:48.918Z,2.60
2023-05-08T11:30:18.952Z,2.20
2023-05-08T11:33:04.698Z,2.10
2023-05-08T11:36:14.114Z,3.50
2023-05-08T11:38:43.952Z,3.20
2023-05-08T11:41:24.649Z,4.20
2023-05-08T11:44:09.381Z,3.40
2023-05-08T11:46:41.179Z,2.90
2023-05-08T11:49:14.540Z,3.90
2023-05-08T11:51:45.034Z,2.90
2023-05-08T11:54:16.325Z,2.80
2023-05-08T11:56:47.608Z,3.60
2023-05-08T11:59:15.780Z,2.40
2023-05-08T12:01:46.310Z,2.60
2023-05-08T12:04:16.265Z,2.50
2023-05-08T12:06:44.653Z,3.10
2023-05-08T12:09:14.704Z,3.10
2023-05-08T12:11:45.156Z,6.10
2023-05-08T12:14:13.872Z,3.20
2023-05-08T12:16:41.227Z,3.00
2023-05-08T12:19:13.101Z,3.40
2023-05-08T12:21:48.978Z,4.80
2023-05-08T12:24:23.054Z,3.30
2023-05-08T12:26:54.446Z,4.60
2023-05-08T12:29:21.621Z,4.20
2023-05-08T12:31:49.090Z,2.60
2023-05-08T12:34:16.436Z,2.70
2023-05-08T12:36:43.514Z,2.80
2023-05-08T12:39:16.091Z,2.90
2023-05-08T12:41:51.036Z,2.90
2023-05-08T12:44:24.104Z,2.90
2023-05-08T12:46:53.176Z,2.30
2023-05-08T12:49:26.861Z,2.80
2023-05-08T12:52:04.557Z,2.30
2023-05-08T12:54:36.286Z,2.30
2023-05-08T12:57:17.191Z,4.90
2023-05-08T12:59:45.983Z,2.00
2023-05-08T13:02:18.694Z,2.40
2023-05-08T13:04:46.694Z,2.40
2023-05-08T13:07:14.131Z,3.40
2023-05-08T13:09:56.221Z,2.90
2023-05-08T13:12:23.324Z,2.90
2023-05-08T13:14:50.670Z,3.20
2023-05-08T13:17:18.916Z,2.70
2023-05-08T13:19:46.044Z,2.10
2023-05-08T13:22:13.126Z,2.40
2023-05-08T13:24:40.263Z,2.30
2023-05-08T13:27:07.655Z,2.40
2023-05-08T13:29:34.961Z,2.20
2023-05-08T13:32:02.165Z,2.00
2023-05-08T13:34:29.345Z,13.90
2023-05-08T13:36:56.613Z,4.90
2023-05-08T13:39:23.797Z,4.50
2023-05-08T13:41:50.911Z,3.60
2023-05-08T13:44:18.018Z,3.00
2023-05-08T13:46:45.092Z,3.80
2023-05-08T13:49:12.199Z,12.30
2023-05-08T13:51:39.403Z,4.30
2023-05-08T13:54:06.528Z,2.40
2023-05-08T13:56:33.577Z,2.20
2023-05-08T13:59:00.802Z,2.90
2023-05-08T14:01:27.981Z,2.30
2023-05-08T14:03:55.539Z,2.20
2023-05-08T14:06:23.074Z,2.50
2023-05-08T14:08:52.671Z,2.10
2023-05-08T14:11:22.449Z,3.70
2023-05-08T14:13:49.582Z,42.30
2023-05-08T14:16:16.893Z,4.50
2023-05-08T14:18:44.051Z,3.60
2023-05-08T14:21:11.115Z,2.00
2023-05-08T14:23:39.053Z,2.30
2023-05-08T14:26:06.150Z,2.60
2023-05-08T14:28:33.514Z,2.80
2023-05-08T14:31:00.677Z,3.00
2023-05-08T14:33:27.989Z,3.70
2023-05-08T14:35:55.142Z,2.10
2023-05-08T14:38:22.253Z,2.80
2023-05-08T14:40:54.405Z,9.40
2023-05-08T14:43:21.981Z,3.30
2023-05-08T14:45:49.576Z,3.00
2023-05-08T14:48:16.752Z,3.20
2023-05-08T14:50:43.891Z,3.10
2023-05-08T14:53:11.209Z,3.50
2023-05-08T14:55:38.579Z,4.80
2023-05-08T14:58:05.971Z,3.70
2023-05-08T15:00:33.146Z,2.60
2023-05-08T15:03:00.421Z,2.20
2023-05-08T15:05:27.688Z,2.00
2023-05-08T15:07:54.828Z,2.00
2023-05-08T15:10:21.974Z,2.20
2023-05-08T15:12:49.771Z,2.10
2023-05-08T15:15:17.025Z,2.00
2023-05-08T15:17:44.236Z,2.80
2023-05-08T15:20:11.555Z,2.20
2023-05-08T15:22:38.792Z,7.70
2023-05-08T15:25:06.724Z,3.90
2023-05-08T15:27:33.818Z,4.40
2023-05-08T15:30:00.978Z,5.10
2023-05-08T15:32:28.057Z,4.10
2023-05-08T15:34:56.030Z,2.60
2023-05-08T15:37:23.175Z,2.90
2023-05-08T15:39:50.427Z,3.20
2023-05-08T15:42:17.502Z,3.10
2023-05-08T15:47:14.900Z,5.20
2023-05-08T15:49:41.952Z,5.40
2023-05-08T15:52:09.097Z,3.90
2023-05-08T15:54:36.272Z,2.70
2023-05-08T15:57:03.395Z,97.40
2023-05-08T15:59:30.583Z,14.00
2023-05-08T16:01:57.719Z,7.20
2023-05-08T16:04:24.824Z,10.40
2023-05-08T16:06:51.938Z,4.60
2023-05-08T16:09:19.104Z,3.90
2023-05-08T16:11:47.968Z,19.90
2023-05-08T16:14:16.809Z,9.50
2023-05-08T16:16:44.073Z,5.50
2023-05-08T16:19:11.407Z,5.90
2023-05-08T16:21:38.620Z,5.70
2023-05-08T16:24:05.972Z,3.20
2023-05-08T16:26:33.018Z,11.30
2023-05-08T16:29:00.340Z,7.80
2023-05-08T16:31:27.451Z,11.60
2023-05-08T16:33:54.766Z,5.30
2023-05-08T16:36:22.106Z,5.00
2023-05-08T16:38:49.412Z,41.60
2023-05-08T16:41:16.734Z,31.20
2023-05-08T16:43:43.954Z,6.70
2023-05-08T16:46:11.169Z,347.00
2023-05-08T16:48:38.230Z,324.70
2023-05-08T16:51:05.484Z,55.60
2023-05-08T16:53:33.228Z,88.30
2023-05-08T16:56:00.372Z,50.50
2023-05-08T16:58:27.948Z,22.60
2023-05-08T17:00:55.274Z,15.90
2023-05-08T17:03:22.572Z,9.70
2023-05-08T17:05:49.959Z,17.70
2023-05-08T17:08:17.801Z,17.30
2023-05-08T17:10:44.888Z,12.40
2023-05-08T17:13:12.071Z,15.00
2023-05-08T17:15:39.244Z,29.40
2023-05-08T17:18:06.557Z,26.00
2023-05-08T17:20:40.853Z,13.50
2023-05-08T17:23:09.237Z,39.10
2023-05-08T17:25:36.443Z,29.40
2023-05-08T17:28:04.256Z,14.90
2023-05-08T17:30:31.738Z,12.00
2023-05-08T17:32:59.507Z,11.60
2023-05-08T17:35:26.824Z,10.80
2023-05-08T17:37:54.039Z,20.30
2023-05-08T17:40:21.182Z,17.00
2023-05-08T17:42:48.320Z,12.80
2023-05-08T17:45:15.485Z,9.30
2023-05-08T17:47:42.610Z,9.50
2023-05-08T17:50:11.328Z,9.90
2023-05-08T17:52:38.498Z,7.90
2023-05-08T17:55:06.025Z,15.50
2023-05-08T17:57:33.186Z,9.50
2023-05-08T18:00:00.331Z,26.80
2023-05-08T18:02:27.553Z,23.00
2023-05-08T18:04:54.816Z,13.50
2023-05-08T18:07:21.856Z,13.70
2023-05-08T18:09:49.036Z,16.10
2023-05-08T18:12:16.893Z,16.00
2023-05-08T18:14:45.105Z,26.50
2023-05-08T18:17:14.888Z,35.70
2023-05-08T18:19:41.887Z,36.60
2023-05-08T18:22:09.011Z,37.90
2023-05-08T18:24:36.165Z,33.90
2023-05-08T18:27:03.397Z,33.80
2023-05-08T18:29:30.925Z,20.00
2023-05-08T18:31:58.081Z,18.10
2023-05-08T18:34:26.287Z,19.90
2023-05-08T18:36:54.953Z,19.20
2023-05-08T18:39:23.333Z,20.80
2023-05-08T18:41:50.557Z,46.90
2023-05-08T18:44:17.925Z,66.40
2023-05-08T18:46:45.107Z,77.40
2023-05-08T18:49:12.269Z,63.50
2023-05-08T18:51:39.490Z,45.90
2023-05-08T18:54:06.572Z,38.50
2023-05-08T18:56:34.371Z,38.30
2023-05-08T18:59:01.590Z,36.90
2023-05-08T19:01:28.770Z,47.60
2023-05-08T19:03:55.889Z,59.80
2023-05-08T19:06:23.076Z,67.90
2023-05-08T19:08:52.210Z,50.20
2023-05-08T19:11:19.549Z,49.20
2023-05-08T19:13:46.884Z,41.80
2023-05-08T19:16:14.113Z,41.50
2023-05-08T19:18:41.360Z,46.10
2023-05-08T19:21:08.523Z,43.70
2023-05-08T19:23:35.744Z,43.30
2023-05-08T19:26:02.809Z,43.10
2023-05-08T19:28:29.969Z,46.60
2023-05-08T19:30:57.036Z,38.30
2023-05-08T19:33:24.445Z,40.80
2023-05-08T19:35:51.616Z,41.60
2023-05-08T19:38:18.926Z,45.30
2023-05-08T19:40:56.270Z,43.40
2023-05-08T19:43:25.676Z,43.70
2023-05-08T19:45:52.992Z,46.40
2023-05-08T19:48:20.475Z,50.80
2023-05-08T19:50:47.680Z,50.10
2023-05-08T19:53:14.745Z,48.10
2023-05-08T19:55:41.883Z,43.50
2023-05-08T19:58:09.110Z,44.30
2023-05-08T20:00:36.185Z,44.80
2023-05-08T20:03:03.405Z,43.80
2023-05-08T20:05:30.902Z,42.00
2023-05-08T20:07:58.023Z,42.60
2023-05-08T20:10:25.253Z,41.20
2023-05-08T20:12:52.420Z,45.70
2023-05-08T20:15:19.687Z,39.40
2023-05-08T20:17:46.930Z,40.20
2023-05-08T20:20:14.235Z,33.80
2023-05-08T20:22:41.544Z,27.20
2023-05-08T20:25:08.856Z,25.30
2023-05-08T20:27:36.026Z,23.80
2023-05-08T20:30:03.553Z,36.70
2023-05-08T20:32:30.705Z,39.00
2023-05-08T20:34:57.865Z,47.60
2023-05-08T20:37:24.966Z,49.10
2023-05-08T20:39:51.947Z,50.90
2023-05-08T20:42:19.078Z,49.60
2023-05-08T20:44:46.141Z,46.90
2023-05-08T20:47:13.273Z,43.40
2023-05-08T20:49:40.423Z,43.30
2023-05-08T20:52:07.469Z,58.20
2023-05-08T20:54:34.568Z,52.30
2023-05-08T20:57:02.151Z,45.90
2023-05-08T20:59:29.286Z,43.70
2023-05-08T21:01:56.420Z,49.00
2023-05-08T21:04:23.618Z,62.30
2023-05-08T21:06:52.137Z,90.70
2023-05-08T21:09:19.637Z,84.90
2023-05-08T21:11:46.815Z,95.80
2023-05-08T21:14:13.913Z,60.00
2023-05-08T21:16:40.987Z,78.60
2023-05-08T21:19:09.889Z,52.10
2023-05-08T21:21:36.965Z,36.90
2023-05-08T21:24:04.388Z,32.80
2023-05-08T21:26:31.483Z,27.60
2023-05-08T21:28:59.389Z,28.30
2023-05-08T21:31:28.892Z,26.80
2023-05-08T21:33:56.132Z,22.50
2023-05-08T21:36:23.922Z,22.80
2023-05-08T21:38:52.173Z,21.30
2023-05-08T21:41:19.329Z,21.40
2023-05-08T21:43:46.424Z,21.40
2023-05-08T21:46:13.647Z,17.60
2023-05-08T21:48:40.851Z,17.40
2023-05-08T21:51:08.224Z,14.20
2023-05-08T21:53:35.407Z,14.70
2023-05-08T21:56:02.395Z,17.50
2023-05-08T21:58:29.488Z,17.00
2023-05-08T22:00:58.528Z,18.00
2023-05-08T22:03:26.169Z,17.10
2023-05-08T22:05:53.296Z,15.40
2023-05-08T22:08:20.415Z,17.20
2023-05-08T22:10:47.487Z,15.80
2023-05-08T22:13:14.705Z,15.30
2023-05-08T22:15:42.564Z,15.10
2023-05-08T22:18:09.742Z,13.90
2023-05-08T22:20:36.874Z,12.90
2023-05-08T22:23:04.029Z,13.90
2023-05-08T22:25:31.120Z,13.10
2023-05-08T22:27:58.388Z,16.60
2023-05-08T22:30:25.508Z,19.20
2023-05-08T22:32:57.826Z,22.40
2023-05-08T22:35:26.878Z,26.00
2023-05-08T22:37:54.507Z,39.00
2023-05-08T22:40:22.349Z,43.40
2023-05-08T22:42:51.874Z,41.10
2023-05-08T22:45:19.534Z,33.50
2023-05-08T22:47:46.817Z,26.70
2023-05-08T22:50:14.262Z,20.70
2023-05-08T22:52:41.404Z,17.00
2023-05-08T22:55:08.866Z,15.60
2023-05-08T22:57:36.033Z,16.10
2023-05-08T23:00:03.520Z,19.60
2023-05-08T23:02:34.915Z,19.30
2023-05-08T23:05:02.423Z,19.30
2023-05-08T23:07:29.691Z,17.50
2023-05-08T23:09:56.803Z,15.10
2023-05-08T23:12:24.046Z,13.20
2023-05-08T23:14:52.054Z,11.00
2023-05-08T23:17:19.286Z,10.30
2023-05-08T23:19:46.497Z,11.40
2023-05-08T23:22:13.765Z,11.90
2023-05-08T23:24:40.821Z,13.90
2023-05-08T23:27:07.930Z,14.70
2023-05-08T23:29:35.203Z,15.10
2023-05-08T23:32:02.335Z,16.00
2023-05-08T23:34:29.478Z,23.20
2023-05-08T23:36:56.992Z,26.90
2023-05-08T23:39:24.111Z,26.30
2023-05-08T23:41:51.169Z,29.40
2023-05-08T23:44:18.178Z,30.30
2023-05-08T23:46:46.334Z,31.20
2023-05-08T23:49:13.552Z,30.10
2023-05-08T23:51:40.630Z,29.20
2023-05-08T23:54:07.762Z,44.60
2023-05-08T23:56:34.857Z,84.30
2023-05-08T23:59:01.975Z,109.40
